Airfield :
LOGIN :

Register | Disclaimer

   EN    FR    IT 

 










Legend :    VFR   Marginal VFR   IFR   Intensive IFR   Very Intensive IFR
Visi :
Ceiling :
>= 8 km
>= 3000ft
5 to 8 km
1000 to 3000 ft
1500m to 5 km
500 to 1000 ft
800 to 1500m
200 to 500 ft
< 800m
< 200 ft
Symbols :   Thunderstorms  Fog  Heavy snow  Heavy precipitations  Wind > 20 kt
SIGMETs :     Misc.  Thunderstorms  Icing  Turbulence  Mountain Waves  Volcanic Ashes







- Airport Elevation : 313 ft
- IATA code : LEH
- Download approach charts


LFOH - Le Havre Octeville

CURRENT METAR :
  • 231930Z AUTO 34014KT 9999 // SCT038 BKN047 BKN056 13/06 Q1027

EXPIRED METARs :
  • 231900Z AUTO 35014KT 9999 // BKN039 BKN054 BKN064 13/05 Q1026
  • 231800Z AUTO 35015KT 9999 // BKN036 BKN043 OVC050 13/05 Q1025
  • 231730Z AUTO 34016G26KT 9999 // BKN033 OVC042 12/06 Q1024

TAF TAF LFOH
Valid from the 23 at 12:00 until the 24 at 12:00 UTC


231100Z 2312/2412 35017KT 9999 BKN018
TEMPO 2312/2315 35020G30KT 3000 SHRA BKN008 BKN012CB
BECMG 2321/2323 04005KT
ATIS : +33 2 35 54 64 93
No reported NOTAMs for that airfield.



MET'MAP, your aeronautical weather chart ! - Copyright ORBIFLY December 2007 - Disclaimer

ORBIFLY MET'MAP TEAM :

Programming & Development : Alexandra Zaïnal
Concept & Development : Baudouin d'Aumeries
Co-Development & Prog : Marc-Olivier Méhu
Technical & hardware support : Manuel Goepfert

Contact : metmap@orbifly.com




SOURCES & CREDITS :

   NOAA